createdAt,value
2023-05-05T00:00:15.902Z,2.97
2023-05-05T00:02:45.514Z,3.87
2023-05-05T00:05:13.261Z,3.50
2023-05-05T00:07:40.412Z,2.60
2023-05-05T00:10:08.613Z,3.70
2023-05-05T00:12:36.625Z,2.90
2023-05-05T00:15:04.602Z,3.10
2023-05-05T00:17:31.679Z,3.10
2023-05-05T00:20:00.274Z,3.07
2023-05-05T00:22:28.756Z,5.40
2023-05-05T00:24:56.506Z,3.13
2023-05-05T00:27:23.337Z,3.53
2023-05-05T00:29:52.563Z,3.50
2023-05-05T00:32:23.247Z,3.30
2023-05-05T00:34:50.347Z,3.23
2023-05-05T00:37:17.809Z,3.27
2023-05-05T00:39:45.398Z,3.43
2023-05-05T00:42:12.617Z,3.33
2023-05-05T00:44:42.639Z,2.83
2023-05-05T00:47:11.827Z,3.00
2023-05-05T00:49:40.009Z,3.33
2023-05-05T00:52:11.370Z,4.00
2023-05-05T00:54:38.528Z,3.13
2023-05-05T00:57:05.613Z,3.40
2023-05-05T00:59:35.251Z,3.20
2023-05-05T01:02:02.878Z,3.30
2023-05-05T01:04:30.497Z,3.13
2023-05-05T01:07:22.763Z,2.90
2023-05-05T01:10:23.744Z,3.30
2023-05-05T01:13:13.318Z,3.20
2023-05-05T01:16:06.785Z,3.10
2023-05-05T01:18:50.519Z,2.90
2023-05-05T01:21:33.627Z,3.30
2023-05-05T01:24:38.383Z,3.57
2023-05-05T01:27:31.977Z,3.20
2023-05-05T01:30:39.318Z,3.90
2023-05-05T01:33:12.133Z,3.43
2023-05-05T01:35:46.914Z,3.53
2023-05-05T01:38:23.514Z,3.67
2023-05-05T01:41:02.346Z,3.70
2023-05-05T01:43:33.773Z,3.20
2023-05-05T01:46:02.562Z,3.30
2023-05-05T01:48:34.007Z,3.70
2023-05-05T01:51:05.078Z,3.90
2023-05-05T01:53:34.588Z,3.70
2023-05-05T01:56:03.587Z,3.53
2023-05-05T01:58:33.206Z,4.00
2023-05-05T02:01:01.390Z,3.77
2023-05-05T02:03:30.767Z,3.57
2023-05-05T02:06:03.600Z,3.30
2023-05-05T02:08:32.108Z,3.63
2023-05-05T02:11:01.021Z,4.07
2023-05-05T02:13:31.358Z,4.13
2023-05-05T02:15:59.531Z,3.30
2023-05-05T02:18:28.565Z,3.60
2023-05-05T02:20:56.069Z,3.43
2023-05-05T02:23:24.429Z,3.67
2023-05-05T02:25:55.939Z,4.30
2023-05-05T02:28:35.184Z,4.30
2023-05-05T02:31:06.101Z,4.00
2023-05-05T02:33:35.466Z,4.17
2023-05-05T02:36:19.253Z,3.57
2023-05-05T02:38:47.674Z,4.20
2023-05-05T02:41:20.219Z,4.37
2023-05-05T02:43:50.150Z,3.73
2023-05-05T02:46:18.116Z,3.67
2023-05-05T02:48:46.392Z,3.90
2023-05-05T02:51:13.671Z,4.27
2023-05-05T02:53:41.400Z,4.77
2023-05-05T02:56:27.861Z,4.63
2023-05-05T02:59:00.114Z,4.90
2023-05-05T03:01:38.565Z,5.00
2023-05-05T03:04:32.180Z,4.07
2023-05-05T03:07:04.464Z,3.57
2023-05-05T03:09:51.726Z,4.17
2023-05-05T03:12:22.391Z,5.40
2023-05-05T03:14:56.902Z,3.80
2023-05-05T03:17:25.319Z,4.60
2023-05-05T03:19:53.034Z,4.90
2023-05-05T03:22:20.810Z,4.50
2023-05-05T03:24:51.857Z,4.90
2023-05-05T03:27:20.801Z,4.80
2023-05-05T03:29:48.321Z,4.70
2023-05-05T03:32:18.474Z,5.07
2023-05-05T03:34:46.380Z,5.50
2023-05-05T03:37:14.104Z,4.20
2023-05-05T03:39:42.043Z,4.10
2023-05-05T03:42:09.921Z,5.03
2023-05-05T03:44:37.076Z,5.73
2023-05-05T03:47:08.008Z,4.73
2023-05-05T03:49:35.204Z,4.50
2023-05-05T03:52:03.039Z,4.73
2023-05-05T03:54:29.878Z,4.93
2023-05-05T03:56:57.183Z,5.27
2023-05-05T03:59:24.251Z,5.30
2023-05-05T04:01:51.644Z,5.33
2023-05-05T04:04:19.333Z,5.20
2023-05-05T04:06:46.784Z,4.90
2023-05-05T04:09:15.012Z,5.80
2023-05-05T04:11:42.471Z,5.67
2023-05-05T04:14:10.392Z,5.80
2023-05-05T04:16:37.624Z,5.60
2023-05-05T04:19:05.294Z,6.10
2023-05-05T04:21:32.735Z,5.60
2023-05-05T04:24:00.208Z,4.80
2023-05-05T04:26:28.081Z,5.73
2023-05-05T04:28:56.108Z,5.33
2023-05-05T04:31:23.925Z,5.30
2023-05-05T04:33:51.468Z,5.60
2023-05-05T04:36:19.657Z,4.90
2023-05-05T04:38:47.433Z,5.30
2023-05-05T04:41:15.142Z,5.00
2023-05-05T04:43:42.875Z,5.77
2023-05-05T04:46:10.943Z,5.70
2023-05-05T04:48:38.485Z,6.20
2023-05-05T04:51:07.362Z,6.00
2023-05-05T04:53:35.085Z,6.10
2023-05-05T04:56:05.386Z,5.90
2023-05-05T04:58:32.997Z,6.87
2023-05-05T05:01:00.688Z,6.93
2023-05-05T05:03:27.579Z,6.90
2023-05-05T05:05:55.189Z,7.10
2023-05-05T05:08:22.942Z,6.90
2023-05-05T05:10:50.534Z,7.00
2023-05-05T05:13:17.728Z,7.43
2023-05-05T05:15:46.064Z,6.07
2023-05-05T05:18:13.630Z,6.70
2023-05-05T05:20:40.971Z,7.60
2023-05-05T05:23:07.887Z,6.63
2023-05-05T05:25:35.269Z,6.43
2023-05-05T05:28:10.114Z,7.13
2023-05-05T05:30:38.120Z,6.70
2023-05-05T05:33:05.769Z,6.90
2023-05-05T05:35:33.669Z,5.97
2023-05-05T05:38:01.603Z,8.67
2023-05-05T05:40:31.349Z,7.17
2023-05-05T05:42:58.969Z,7.17
2023-05-05T05:45:26.265Z,7.77
2023-05-05T05:47:53.083Z,7.70
2023-05-05T05:50:21.492Z,11.03
2023-05-05T05:52:48.915Z,7.80
2023-05-05T05:55:16.391Z,6.83
2023-05-05T05:57:46.836Z,7.70
2023-05-05T06:00:16.221Z,7.43
2023-05-05T06:02:43.096Z,7.90
2023-05-05T06:05:11.152Z,7.83
2023-05-05T06:07:38.926Z,8.30
2023-05-05T06:10:22.555Z,7.17
2023-05-05T06:12:53.976Z,8.80
2023-05-05T06:15:20.998Z,9.30
2023-05-05T06:17:48.911Z,8.73
2023-05-05T06:20:16.434Z,9.33
2023-05-05T06:22:44.163Z,8.93
2023-05-05T06:25:11.600Z,9.17
2023-05-05T06:27:38.786Z,8.03
2023-05-05T06:30:08.261Z,9.67
2023-05-05T06:32:36.112Z,10.20
2023-05-05T06:35:03.973Z,10.60
2023-05-05T06:37:31.897Z,9.83
2023-05-05T06:40:01.853Z,10.60
2023-05-05T06:42:31.292Z,9.40
2023-05-05T06:44:58.203Z,9.40
2023-05-05T06:47:26.478Z,9.83
2023-05-05T06:49:53.890Z,10.80
2023-05-05T06:52:22.552Z,10.17
2023-05-05T06:54:49.769Z,10.70
2023-05-05T06:57:17.156Z,10.40
2023-05-05T06:59:44.341Z,12.93
2023-05-05T07:02:11.872Z,11.13
2023-05-05T07:04:42.151Z,11.60
2023-05-05T07:07:09.799Z,10.87
2023-05-05T07:09:41.647Z,10.23
2023-05-05T07:12:09.769Z,11.03
2023-05-05T07:14:36.770Z,10.67
2023-05-05T07:17:04.770Z,10.97
2023-05-05T07:19:31.524Z,10.80
2023-05-05T07:21:58.226Z,11.13
2023-05-05T07:24:24.994Z,10.23
2023-05-05T07:26:51.813Z,10.67
2023-05-05T07:29:18.520Z,10.40
2023-05-05T07:31:45.917Z,9.30
2023-05-05T07:34:12.889Z,9.20
2023-05-05T07:36:40.038Z,9.00
2023-05-05T07:39:07.527Z,9.37
2023-05-05T07:41:34.302Z,9.23
2023-05-05T07:44:01.422Z,8.90
2023-05-05T07:46:28.287Z,8.43
2023-05-05T07:48:55.057Z,8.37
2023-05-05T07:51:22.017Z,8.53
2023-05-05T07:53:48.906Z,7.50
2023-05-05T07:56:15.691Z,8.83
2023-05-05T07:58:42.580Z,7.57
2023-05-05T08:01:11.227Z,8.17
2023-05-05T08:03:38.295Z,8.00
2023-05-05T08:06:12.058Z,6.83
2023-05-05T08:08:38.741Z,6.50
2023-05-05T08:11:06.681Z,7.80
2023-05-05T08:13:34.175Z,7.83
2023-05-05T08:16:00.958Z,8.20
2023-05-05T08:18:27.754Z,7.97
2023-05-05T08:20:54.714Z,6.90
2023-05-05T08:23:21.804Z,8.13
2023-05-05T08:25:48.553Z,7.43
2023-05-05T08:28:15.593Z,7.70
2023-05-05T08:30:42.871Z,8.07
2023-05-05T08:33:11.090Z,7.97
2023-05-05T08:35:37.996Z,9.70
2023-05-05T08:38:04.757Z,8.90
2023-05-05T08:40:36.972Z,9.20
2023-05-05T08:43:04.578Z,8.30
2023-05-05T08:45:31.724Z,8.83
2023-05-05T08:48:05.497Z,9.43
2023-05-05T08:50:32.826Z,8.50
2023-05-05T08:53:15.762Z,8.47
2023-05-05T08:55:51.274Z,9.57
2023-05-05T08:58:19.562Z,9.63
2023-05-05T09:00:46.674Z,8.87
2023-05-05T09:03:14.552Z,9.43
2023-05-05T09:05:43.315Z,8.20
2023-05-05T09:08:13.841Z,10.23
2023-05-05T09:10:41.888Z,8.83
2023-05-05T09:13:08.991Z,10.17
2023-05-05T09:15:35.959Z,9.00
2023-05-05T09:18:05.250Z,8.40
2023-05-05T09:20:36.171Z,9.90
2023-05-05T09:23:14.966Z,9.23
2023-05-05T09:25:47.051Z,10.30
2023-05-05T09:28:18.017Z,11.03
2023-05-05T09:30:46.916Z,11.10
2023-05-05T09:33:14.092Z,9.77
2023-05-05T09:36:11.597Z,10.43
2023-05-05T09:38:38.412Z,10.43
2023-05-05T09:41:06.381Z,11.87
2023-05-05T09:43:52.623Z,11.70
2023-05-05T09:46:19.599Z,12.60
2023-05-05T09:48:46.498Z,10.83
2023-05-05T09:51:13.318Z,11.33
2023-05-05T09:53:41.824Z,11.50
2023-05-05T09:56:08.747Z,12.53
2023-05-05T09:58:35.698Z,11.40
2023-05-05T10:01:02.432Z,10.10
2023-05-05T10:03:29.144Z,10.00
2023-05-05T10:06:01.057Z,10.40
2023-05-05T10:08:30.415Z,8.97
2023-05-05T10:11:06.387Z,7.83
2023-05-05T10:13:43.107Z,12.70
2023-05-05T10:16:12.143Z,8.90
2023-05-05T10:18:43.483Z,12.13
2023-05-05T10:21:12.443Z,7.80
2023-05-05T10:23:49.547Z,9.00
2023-05-05T10:26:19.894Z,6.10
2023-05-05T10:28:56.436Z,7.43
2023-05-05T10:31:56.058Z,5.30
2023-05-05T10:34:52.233Z,11.20
2023-05-05T10:37:21.821Z,14.20
2023-05-05T10:39:50.580Z,4.97
2023-05-05T10:42:19.481Z,6.60
2023-05-05T10:44:48.443Z,6.03
2023-05-05T10:47:17.100Z,8.90
2023-05-05T10:49:59.875Z,8.90
2023-05-05T10:52:54.640Z,8.80
2023-05-05T10:55:58.687Z,7.67
2023-05-05T10:58:44.097Z,6.27
2023-05-05T11:01:35.200Z,6.90
2023-05-05T11:04:21.854Z,5.90
2023-05-05T11:07:14.359Z,4.93
2023-05-05T11:09:58.789Z,3.80
2023-05-05T11:12:25.807Z,4.93
2023-05-05T11:15:34.423Z,7.60
2023-05-05T11:18:05.862Z,8.30
2023-05-05T11:20:37.102Z,9.13
2023-05-05T11:23:03.883Z,9.03
2023-05-05T11:25:37.515Z,6.10
2023-05-05T11:28:16.418Z,4.80
2023-05-05T11:31:03.451Z,4.47
2023-05-05T11:33:32.081Z,2.50
2023-05-05T11:36:06.092Z,3.20
2023-05-05T11:38:36.375Z,2.07
2023-05-05T11:41:14.347Z,1.50
2023-05-05T11:43:44.069Z,2.27
2023-05-05T11:46:14.793Z,2.33
2023-05-05T11:48:48.856Z,2.20
2023-05-05T11:51:17.122Z,2.20
2023-05-05T11:53:44.799Z,2.90
2023-05-05T11:56:12.682Z,3.00
2023-05-05T11:58:39.484Z,2.80
2023-05-05T12:01:09.187Z,3.10
2023-05-05T12:03:37.799Z,2.00
2023-05-05T12:06:05.829Z,2.30
2023-05-05T12:08:36.721Z,2.30
2023-05-05T12:11:10.776Z,2.00
2023-05-05T12:13:37.580Z,2.03
2023-05-05T12:16:15.191Z,1.93
2023-05-05T12:18:42.679Z,1.97
2023-05-05T12:21:19.805Z,2.00
2023-05-05T12:23:47.121Z,2.10
2023-05-05T12:26:27.946Z,2.00
2023-05-05T12:29:00.992Z,2.50
2023-05-05T12:31:43.029Z,2.33
2023-05-05T12:34:11.179Z,2.17
2023-05-05T12:36:38.840Z,2.80
2023-05-05T12:39:08.304Z,1.97
2023-05-05T12:41:35.834Z,2.70
2023-05-05T12:44:05.538Z,2.23
2023-05-05T12:46:45.306Z,2.67
2023-05-05T12:49:12.141Z,2.90
2023-05-05T12:51:39.283Z,3.07
2023-05-05T12:54:12.698Z,4.70
2023-05-05T12:56:47.185Z,3.60
2023-05-05T12:59:23.074Z,2.80
2023-05-05T13:01:54.301Z,2.70
2023-05-05T13:04:23.191Z,2.57
2023-05-05T13:07:07.390Z,2.23
2023-05-05T13:09:34.738Z,2.53
2023-05-05T13:12:04.600Z,2.37
2023-05-05T13:14:37.952Z,2.73
2023-05-05T13:17:04.736Z,3.53
2023-05-05T13:19:31.975Z,3.93
2023-05-05T13:21:59.083Z,4.00
2023-05-05T13:24:42.170Z,8.30
2023-05-05T13:27:13.072Z,3.80
2023-05-05T13:29:41.740Z,4.13
2023-05-05T13:32:08.548Z,3.80
2023-05-05T13:34:35.394Z,4.70
2023-05-05T13:37:02.063Z,21.30
2023-05-05T13:39:28.852Z,3.60
2023-05-05T13:41:55.711Z,4.50
2023-05-05T13:44:22.491Z,3.60
2023-05-05T13:46:49.298Z,4.20
2023-05-05T13:49:16.383Z,4.10
2023-05-05T13:51:43.972Z,4.33
2023-05-05T13:54:11.428Z,3.70
2023-05-05T13:56:38.195Z,4.70
2023-05-05T13:59:04.980Z,4.33
2023-05-05T14:01:31.846Z,4.40
2023-05-05T14:03:58.836Z,3.60
2023-05-05T14:06:26.388Z,3.33
2023-05-05T14:08:53.383Z,3.73
2023-05-05T14:11:20.791Z,4.23
2023-05-05T14:13:48.184Z,4.17
2023-05-05T14:16:15.431Z,4.53
2023-05-05T14:18:42.515Z,4.27
2023-05-05T14:21:09.346Z,4.90
2023-05-05T14:23:36.144Z,4.70
2023-05-05T14:26:02.883Z,4.83
2023-05-05T14:28:29.611Z,5.27
2023-05-05T14:30:56.464Z,4.50
2023-05-05T14:33:23.295Z,5.37
2023-05-05T14:35:50.087Z,4.77
2023-05-05T14:38:16.914Z,5.97
2023-05-05T14:40:43.720Z,4.40
2023-05-05T14:43:10.491Z,4.57
2023-05-05T14:45:37.439Z,4.10
2023-05-05T14:48:04.354Z,3.20
2023-05-05T14:50:31.248Z,5.13
2023-05-05T14:52:57.981Z,4.07
2023-05-05T14:55:25.149Z,4.00
2023-05-05T14:57:52.054Z,4.50
2023-05-05T15:00:19.022Z,4.67
2023-05-05T15:02:48.324Z,4.07
2023-05-05T15:05:15.372Z,3.60
2023-05-05T15:07:42.241Z,2.73
2023-05-05T15:10:09.342Z,2.13
2023-05-05T15:12:36.275Z,2.00
2023-05-05T15:15:03.148Z,1.80
2023-05-05T15:17:30.847Z,1.50
2023-05-05T15:19:57.779Z,1.70
2023-05-05T15:22:24.673Z,1.07
2023-05-05T15:24:51.326Z,1.60
2023-05-05T15:27:18.535Z,1.70
2023-05-05T15:29:45.395Z,1.30
2023-05-05T15:32:12.341Z,1.20
2023-05-05T15:34:39.206Z,1.30
2023-05-05T15:37:06.093Z,1.50
2023-05-05T15:39:32.807Z,1.30
2023-05-05T15:42:02.699Z,1.37
2023-05-05T15:44:29.919Z,1.40
2023-05-05T15:46:56.886Z,8.30
2023-05-05T15:49:23.630Z,1.30
2023-05-05T15:51:50.300Z,1.90
2023-05-05T15:54:17.003Z,1.90
2023-05-05T15:56:43.810Z,2.13
2023-05-05T15:59:11.904Z,2.40
2023-05-05T16:01:40.679Z,2.10
2023-05-05T16:04:08.339Z,2.53
2023-05-05T16:06:39.007Z,1.97
2023-05-05T16:09:05.721Z,3.03
2023-05-05T16:11:32.520Z,5.97
2023-05-05T16:13:59.308Z,6.27
2023-05-05T16:16:26.255Z,2.47
2023-05-05T16:18:53.153Z,1.73
2023-05-05T16:21:19.895Z,3.17
2023-05-05T16:23:46.666Z,4.83
2023-05-05T16:26:13.437Z,3.73
2023-05-05T16:28:40.201Z,2.97
2023-05-05T16:31:07.105Z,2.70
2023-05-05T16:33:36.123Z,2.90
2023-05-05T16:36:02.914Z,4.27
2023-05-05T16:38:29.608Z,46.57
2023-05-05T16:40:56.398Z,5.53
2023-05-05T16:43:23.134Z,8.17
2023-05-05T16:45:49.882Z,5.83
2023-05-05T16:48:18.375Z,8.13
2023-05-05T16:50:45.631Z,7.17
2023-05-05T16:53:12.466Z,4.67
2023-05-05T16:55:39.277Z,2.13
2023-05-05T16:58:05.978Z,1.60
2023-05-05T17:00:32.667Z,3.60
2023-05-05T17:02:59.441Z,2.33
2023-05-05T17:05:26.914Z,5.67
2023-05-05T17:07:53.896Z,27.03
2023-05-05T17:10:20.808Z,7.17
2023-05-05T17:12:47.524Z,32.93
2023-05-05T17:15:14.229Z,7.70
2023-05-05T17:17:42.889Z,3.60
2023-05-05T17:20:10.751Z,5.20
2023-05-05T17:22:38.117Z,2.40
2023-05-05T17:25:05.820Z,2.60
2023-05-05T17:27:32.575Z,2.50
2023-05-05T17:29:59.493Z,2.73
2023-05-05T17:32:26.567Z,2.30
2023-05-05T17:34:53.283Z,4.57
2023-05-05T17:37:19.960Z,3.30
2023-05-05T17:39:46.612Z,8.63
2023-05-05T17:42:13.330Z,26.87
2023-05-05T17:44:40.146Z,12.07
2023-05-05T17:47:07.752Z,11.20
2023-05-05T17:49:34.797Z,8.10
2023-05-05T17:52:01.656Z,13.63
2023-05-05T17:54:28.438Z,17.90
2023-05-05T17:56:55.351Z,9.33
2023-05-05T17:59:22.199Z,12.20
2023-05-05T18:01:49.026Z,7.37
2023-05-05T18:04:15.931Z,8.93
2023-05-05T18:06:42.744Z,6.40
2023-05-05T18:09:11.149Z,6.50
2023-05-05T18:11:38.165Z,5.90
2023-05-05T18:14:05.126Z,7.10
2023-05-05T18:16:31.947Z,8.70
2023-05-05T18:18:58.964Z,10.73
2023-05-05T18:21:25.889Z,18.90
2023-05-05T18:23:57.321Z,31.20
2023-05-05T18:26:28.640Z,19.90
2023-05-05T18:28:55.332Z,16.10
2023-05-05T18:31:22.322Z,21.50
2023-05-05T18:33:49.080Z,16.93
2023-05-05T18:36:16.072Z,15.10
2023-05-05T18:38:42.779Z,13.97
2023-05-05T18:41:09.515Z,13.57
2023-05-05T18:43:36.266Z,13.07
2023-05-05T18:46:03.235Z,15.00
2023-05-05T18:48:30.629Z,24.67
2023-05-05T18:51:04.511Z,26.37
2023-05-05T18:53:32.198Z,33.10
2023-05-05T18:55:59.656Z,22.80
2023-05-05T18:58:27.355Z,17.07
2023-05-05T19:00:54.555Z,15.80
2023-05-05T19:03:22.085Z,28.00
2023-05-05T19:05:48.856Z,13.33
2023-05-05T19:08:15.698Z,14.00
2023-05-05T19:10:42.497Z,12.90
2023-05-05T19:13:09.969Z,11.67
2023-05-05T19:15:36.794Z,11.97
2023-05-05T19:18:05.631Z,10.53
2023-05-05T19:20:32.605Z,12.30
2023-05-05T19:23:03.643Z,12.17
2023-05-05T19:25:31.457Z,11.97
2023-05-05T19:27:58.294Z,11.17
2023-05-05T19:30:24.995Z,12.83
2023-05-05T19:32:51.721Z,11.77
2023-05-05T19:35:18.442Z,11.80
2023-05-05T19:37:45.217Z,12.20
2023-05-05T19:40:12.969Z,12.60
2023-05-05T19:42:40.019Z,12.83
2023-05-05T19:45:07.470Z,12.70
2023-05-05T19:47:34.408Z,13.10
2023-05-05T19:50:01.126Z,15.00
2023-05-05T19:52:27.784Z,14.10
2023-05-05T19:54:54.530Z,14.50
2023-05-05T19:57:21.264Z,13.77
2023-05-05T19:59:49.619Z,14.60
2023-05-05T20:02:21.897Z,14.93
2023-05-05T20:04:49.556Z,15.20
2023-05-05T20:07:17.864Z,16.20
2023-05-05T20:09:45.097Z,118.13
2023-05-05T20:12:12.249Z,15.77
2023-05-05T20:14:39.017Z,15.40
2023-05-05T20:17:05.852Z,15.33
2023-05-05T20:19:32.645Z,15.00
2023-05-05T20:21:59.788Z,14.57
2023-05-05T20:24:28.543Z,15.90
2023-05-05T20:26:55.295Z,14.50
2023-05-05T20:29:22.547Z,14.20
2023-05-05T20:31:49.602Z,14.50
2023-05-05T20:34:16.502Z,14.93
2023-05-05T20:36:43.457Z,14.33
2023-05-05T20:39:15.607Z,16.20
2023-05-05T20:41:42.518Z,15.10
2023-05-05T20:44:10.217Z,15.40
2023-05-05T20:46:37.596Z,16.40
2023-05-05T20:49:04.416Z,15.60
2023-05-05T20:51:34.247Z,15.90
2023-05-05T20:54:02.155Z,18.90
2023-05-05T20:56:28.843Z,19.13
2023-05-05T20:58:56.762Z,20.40
2023-05-05T21:01:23.621Z,20.87
2023-05-05T21:03:50.480Z,21.77
2023-05-05T21:06:19.462Z,20.63
2023-05-05T21:08:47.119Z,21.63
2023-05-05T21:11:13.963Z,21.33
2023-05-05T21:13:40.699Z,22.00
2023-05-05T21:16:10.220Z,21.20
2023-05-05T21:18:36.910Z,23.40
2023-05-05T21:21:03.715Z,22.70
2023-05-05T21:23:31.031Z,24.27
2023-05-05T21:25:57.729Z,24.10
2023-05-05T21:28:24.452Z,21.80
2023-05-05T21:31:10.252Z,24.70
2023-05-05T21:33:38.137Z,24.93
2023-05-05T21:36:06.017Z,25.23
2023-05-05T21:38:32.742Z,24.33
2023-05-05T21:40:59.596Z,24.43
2023-05-05T21:43:28.694Z,25.80
2023-05-05T21:46:13.731Z,26.10
2023-05-05T21:48:41.366Z,26.57
2023-05-05T21:51:08.253Z,25.37
2023-05-05T21:53:35.071Z,24.90
2023-05-05T21:56:01.896Z,25.20
2023-05-05T21:58:29.144Z,24.10
2023-05-05T22:00:56.247Z,22.17
2023-05-05T22:03:23.551Z,24.70
2023-05-05T22:05:50.442Z,23.77
2023-05-05T22:08:17.854Z,25.73
2023-05-05T22:10:44.709Z,26.90
2023-05-05T22:13:11.813Z,26.83
2023-05-05T22:15:45.775Z,26.57
2023-05-05T22:18:13.896Z,26.77
2023-05-05T22:20:40.648Z,27.43
2023-05-05T22:23:07.649Z,24.37
2023-05-05T22:25:34.315Z,24.93
2023-05-05T22:28:01.051Z,25.67
2023-05-05T22:30:27.827Z,25.13
2023-05-05T22:32:55.204Z,25.77
2023-05-05T22:35:22.122Z,27.03
2023-05-05T22:37:48.937Z,27.00
2023-05-05T22:40:15.713Z,26.10
2023-05-05T22:42:42.478Z,25.17
2023-05-05T22:45:09.859Z,27.23
2023-05-05T22:47:37.085Z,26.13
2023-05-05T22:50:03.936Z,26.70
2023-05-05T22:52:30.619Z,26.43
2023-05-05T22:54:57.326Z,27.00
2023-05-05T22:57:24.649Z,26.80
2023-05-05T22:59:51.679Z,27.97
2023-05-05T23:02:18.376Z,26.27
2023-05-05T23:04:45.333Z,27.77
2023-05-05T23:07:13.047Z,29.33
2023-05-05T23:09:40.758Z,29.10
2023-05-05T23:12:07.588Z,28.10
2023-05-05T23:14:35.285Z,28.90
2023-05-05T23:17:02.165Z,27.67
2023-05-05T23:19:32.056Z,27.23
2023-05-05T23:22:00.246Z,28.53
2023-05-05T23:24:29.203Z,28.00
2023-05-05T23:27:00.105Z,27.67
2023-05-05T23:29:28.602Z,28.20
2023-05-05T23:31:55.727Z,26.93
2023-05-05T23:34:23.698Z,28.03
2023-05-05T23:36:51.622Z,27.80
2023-05-05T23:39:18.959Z,29.90
2023-05-05T23:41:46.650Z,29.07
2023-05-05T23:44:14.419Z,28.70
2023-05-05T23:46:41.781Z,28.33
2023-05-05T23:49:09.749Z,28.60
2023-05-05T23:51:37.299Z,28.47
2023-05-05T23:54:04.803Z,27.90
2023-05-05T23:56:32.351Z,28.80
2023-05-05T23:58:59.278Z,30.10
